< < Back
Terminal Aerodrome Forecast


Current Version              Previous Versions:   1  2  3  4  5  6  7  8  9  

Terminal Aerodrome Forecast

521
FTUS42 KMLB 032013 CCA
TAFMCO
TAF COR
KMCO 032013Z 0318/0418 26012KT P6SM VCSH SCT035 SCT250
      TEMPO 0319/0322 3SM TSRA BKN020CB
     FM040000 24006KT P6SM SCT040 BKN100
     FM040900 23004KT P6SM SCT010 BKN030 OVC050
     FM041400 25008KT P6SM VCTS SCT020CB OVC040=



Latest METAR

173
SAUS70 KWBC 032200 RRA
MTRMCO
METAR KMCO 032153Z 30007KT 10SM FEW024 SCT100 BKN190 OVC300 27/19 A2987
RMK AO2 RAB14E42 SLP115 VCSH NE P0000 T02670194


USA.gov is the U.S. government's official web portal to all federal, state and local government web resources and services.